Harlan Richardson — WDD9350 — position and weather

sailwx.info

Track history (hours):
 
Tides and Currents Weather Stations Pressure Air Temp Water Temp Dewpoint Dewpoint Depression Visibility Wind Speed Wind Dir Waves Ship Positions

Harlan Richardson

Owner: RICHARDSON MARINE LP, HOUSTON, TX. More information available from US FCC via Universal Licensing System and Coast Guard Vessel Documentation Center.

Last reported at 2018-Feb-22 04:31 UTC. Time now 2018-Feb-22 04:56 UTC.
Position N 29°42' W 094°55'.

Length 15 m; draft 9 m.

Type: Towing. MMSI: 367310170.

Date/timePositionNaut miles runAvg speedWind from/ knotsBaromVisibWave heightAir tempDewpointWater temp
2018-Feb-22 04:31N 29°42' W 094°55'0 0.0
2018-Feb-22 04:00N 29°42' W 094°55'0 0.0
2018-Feb-22 03:31N 29°42' W 094°55'0 0.0
2018-Feb-22 03:00N 29°42' W 094°55'0 0.0
2018-Feb-22 02:30N 29°42' W 094°55'0 0.0
2018-Feb-22 02:01N 29°42' W 094°55'0 0.0
2018-Feb-22 01:30N 29°42' W 094°55'0 0.0
2018-Feb-22 01:00N 29°42' W 094°55'0 0.2
2018-Feb-22 00:31N 29°42' W 094°55'1 1.7
2018-Feb-21 23:44N 29°43' W 094°56'0 0.5
2018-Feb-21 23:30N 29°43' W 094°56'1 2.4
2018-Feb-21 23:00N 29°42' W 094°55'0 0.2
2018-Feb-21 22:15N 29°42' W 094°55'1 2.9
2018-Feb-21 21:57N 29°42' W 094°56'1 0.1
2018-Feb-21 14:34N 29°43' W 094°57'0 5.6
2018-Feb-21 14:31N 29°43' W 094°57'2 3.6
2018-Feb-21 14:00N 29°42' W 094°55'0 0.0
2018-Feb-21 12:17N 29°42' W 094°55'0 0.0
2018-Feb-21 11:59N 29°42' W 094°55'2 3.5
2018-Feb-21 11:30N 29°43' W 094°57'0 0.1
2018-Feb-21 03:00N 29°43' W 094°56'0 0.0
2018-Feb-21 00:46N 29°43' W 094°56'0 0.5
2018-Feb-21 00:26N 29°43' W 094°57'2 3.6
2018-Feb-20 23:58N 29°42' W 094°55'0 0.6
2018-Feb-20 23:30N 29°42' W 094°55'1 1.7
2018-Feb-20 22:55N 29°42' W 094°56'0 1.0
2018-Feb-20 22:29N 29°43' W 094°56'0 0.0
2018-Feb-20 20:21N 29°43' W 094°56'0 0.0
2018-Feb-20 16:04N 29°43' W 094°56'0 0.2
2018-Feb-20 16:00N 29°43' W 094°56'1 1.4
2018-Feb-20 15:20N 29°42' W 094°55'0 0.9
2018-Feb-20 14:54N 29°42' W 094°55'1 1.5
2018-Feb-20 14:26N 29°42' W 094°56'1 1.5
2018-Feb-20 13:53N 29°43' W 094°56'1 1.7
2018-Feb-20 13:28N 29°43' W 094°57'1 1.5
2018-Feb-20 12:58N 29°43' W 094°56'0 0.0
2018-Feb-20 12:16N 29°43' W 094°56'0 0.0
2018-Feb-20 09:46N 29°43' W 094°56'0 0.0
2018-Feb-20 09:30N 29°43' W 094°56'0 0.0
2018-Feb-20 08:44N 29°43' W 094°56'0 0.0
2018-Feb-20 08:27N 29°43' W 094°56'0 0.0
2018-Feb-20 08:00N 29°43' W 094°56'0 0.0
2018-Feb-20 07:30N 29°43' W 094°56'0 0.0
2018-Feb-20 06:52N 29°43' W 094°56'0 0.0
2018-Feb-20 06:30N 29°43' W 094°56'0 0.0
2018-Feb-20 05:58N 29°43' W 094°56'0 0.0
2018-Feb-20 05:31N 29°43' W 094°56'0 0.0
2018-Feb-20 04:55N 29°43' W 094°56'0 0.0
2018-Feb-20 04:28N 29°43' W 094°56'0 0.0
2018-Feb-20 04:01N 29°43' W 094°56'0 0.0
2018-Feb-20 03:28N 29°43' W 094°56'0 0.0
2018-Feb-20 02:59N 29°43' W 094°56'0 0.1
2018-Feb-20 02:30N 29°43' W 094°56'0 0.1
2018-Feb-20 01:30N 29°43' W 094°56'0 0.0
2018-Feb-20 01:01N 29°43' W 094°56'0 0.0
2018-Feb-20 00:22N 29°43' W 094°56'0 0.1
2018-Feb-19 23:59N 29°43' W 094°56'0 0.1
2018-Feb-19 23:29N 29°43' W 094°56'1 1.4
2018-Feb-19 23:00N 29°43' W 094°57'1 1.4
2018-Feb-19 22:30N 29°43' W 094°56'1 2.3
2018-Feb-19 22:00N 29°42' W 094°55'0 0.1
2018-Feb-19 19:38N 29°42' W 094°55'2 2.2
2018-Feb-19 18:51N 29°41' W 094°57'1 4.3
2018-Feb-19 18:30N 29°41' W 094°58'2 3.5
2018-Feb-19 18:00N 29°40' W 094°58'2 4.7
2018-Feb-19 17:31N 29°37' W 094°57'2 4.5
2018-Feb-19 17:00N 29°37' W 095°00'0 0.2
2018-Feb-19 16:30N 29°37' W 095°00'0 0.0
2018-Feb-19 16:01N 29°37' W 095°00'0 0.0
2018-Feb-19 15:30N 29°37' W 095°00'0 0.0
2018-Feb-19 15:01N 29°37' W 095°00'0 0.0
2018-Feb-19 14:31N 29°37' W 095°00'0 0.0
2018-Feb-19 14:01N 29°37' W 095°00'0 0.0
2018-Feb-19 13:31N 29°37' W 095°00'0 0.0
2018-Feb-19 13:00N 29°37' W 095°00'1 1.2
2018-Feb-19 12:31N 29°37' W 094°59'2 4.1
2018-Feb-19 12:00N 29°39' W 094°58'3 5.6
2018-Feb-19 11:31N 29°41' W 094°58'2 4.6
2018-Feb-19 11:00N 29°41' W 094°56'1 0.7
2018-Feb-19 09:39N 29°42' W 094°55'0 0.0
2018-Feb-19 09:30N 29°42' W 094°55'0 0.0
2018-Feb-19 09:00N 29°42' W 094°55'0 0.0
2018-Feb-19 08:30N 29°42' W 094°55'0 0.0
2018-Feb-19 08:00N 29°42' W 094°55'0 0.0
2018-Feb-19 07:30N 29°42' W 094°55'0 0.0
2018-Feb-19 06:59N 29°42' W 094°55'0 0.0
2018-Feb-19 06:21N 29°42' W 094°55'0 0.0
2018-Feb-19 05:58N 29°42' W 094°55'0 0.0
2018-Feb-19 05:29N 29°42' W 094°55'0 0.0
2018-Feb-19 04:58N 29°42' W 094°55'0 0.1
2018-Feb-19 02:42N 29°42' W 094°55'1 3.3
2018-Feb-19 02:30N 29°42' W 094°56'1 1.5
2018-Feb-19 01:34N 29°43' W 094°56'0 1.8
2018-Feb-19 01:28N 29°43' W 094°57'1 2.5
2018-Feb-19 00:58N 29°42' W 094°56'1 1.0
2018-Feb-19 00:15N 29°42' W 094°55'0 0.1
2018-Feb-19 00:00N 29°42' W 094°55'0 0.5
2018-Feb-18 23:30N 29°42' W 094°55'2 3.1
2018-Feb-18 23:00N 29°41' W 094°57'2 4.5
2018-Feb-18 22:30N 29°41' W 094°59'4 6.1
2018-Feb-18 21:48N 29°44' W 095°03'3 5.3
2018-Feb-18 21:18N 29°45' W 095°06'3 6.4
2018-Feb-18 20:52N 29°44' W 095°09'3 1.4
2018-Feb-18 19:00N 29°45' W 095°11'0 0.0
2018-Feb-18 18:20N 29°45' W 095°11'0 0.0
2018-Feb-18 17:26N 29°45' W 095°11'0 0.0
2018-Feb-18 16:51N 29°45' W 095°11'0 0.0
2018-Feb-18 16:27N 29°45' W 095°11'0 0.0
2018-Feb-18 15:50N 29°45' W 095°11'0 0.0
2018-Feb-18 15:26N 29°45' W 095°11'0 0.0
2018-Feb-18 14:48N 29°45' W 095°11'0 0.0
2018-Feb-18 14:30N 29°45' W 095°11'0 0.0
2018-Feb-18 11:04N 29°45' W 095°11'0 0.0
2018-Feb-18 10:54N 29°45' W 095°11'0 0.0
2018-Feb-18 08:22N 29°45' W 095°11'0 0.0
2018-Feb-18 07:14N 29°45' W 095°11'0 0.0
2018-Feb-18 07:00N 29°45' W 095°11'0 0.0
2018-Feb-18 06:13N 29°45' W 095°11'0 0.0
2018-Feb-18 01:35N 29°45' W 095°11'1 6.6
2018-Feb-18 01:30N 29°45' W 095°11'3 6.1
2018-Feb-18 01:00N 29°44' W 095°07'3 5.9
2018-Feb-18 00:31N 29°45' W 095°04'3 5.8
2018-Feb-18 00:00N 29°43' W 095°01'3 6.4
2018-Feb-17 23:30N 29°41' W 094°59'3 5.5
2018-Feb-17 23:00N 29°40' W 094°56'2 3.0
2018-Feb-17 22:28N 29°42' W 094°55'1 2.8
2018-Feb-17 22:00N 29°43' W 094°56'0 0.1
2018-Feb-17 21:30N 29°43' W 094°56'0 0.0
2018-Feb-17 21:00N 29°43' W 094°56'0 0.0
2018-Feb-17 20:30N 29°43' W 094°56'0 0.0
2018-Feb-17 19:57N 29°43' W 094°56'0 0.0
2018-Feb-17 19:30N 29°43' W 094°56'0 0.0
2018-Feb-17 18:59N 29°43' W 094°56'0 0.0
2018-Feb-17 18:31N 29°43' W 094°56'0 0.0
2018-Feb-17 17:52N 29°43' W 094°56'0 0.0
2018-Feb-17 17:04N 29°43' W 094°56'0 0.0
2018-Feb-17 16:57N 29°43' W 094°56'0 0.0
2018-Feb-17 16:20N 29°43' W 094°56'0 0.0
2018-Feb-17 16:00N 29°43' W 094°56'0 0.1
2018-Feb-17 15:29N 29°43' W 094°56'1 0.1
2018-Feb-17 05:18N 29°43' W 094°56'0 1.6
2018-Feb-17 05:00N 29°43' W 094°56'2 3.0
2018-Feb-17 04:30N 29°42' W 094°55'1 1.2
2018-Feb-17 04:00N 29°42' W 094°56'1 2.9
2018-Feb-17 03:31N 29°43' W 094°57'0 0.2
2018-Feb-17 02:50N 29°43' W 094°56'0 0.3
2018-Feb-17 02:30N 29°43' W 094°57'1 1.5
2018-Feb-17 02:01N 29°43' W 094°56'0 0.1
2018-Feb-17 01:29N 29°43' W 094°56'0 1.0
2018-Feb-17 01:00N 29°42' W 094°56'0 0.9
2018-Feb-17 00:30N 29°42' W 094°56'1 1.2
2018-Feb-16 23:59N 29°42' W 094°55'0 0.1
2018-Feb-16 23:22N 29°42' W 094°55'0 0.3
2018-Feb-16 22:57N 29°42' W 094°55'1 1.6
2018-Feb-16 22:30N 29°42' W 094°56'1 1.5
2018-Feb-16 22:00N 29°43' W 094°56'0 0.1
2018-Feb-16 21:31N 29°43' W 094°56'1 1.3
2018-Feb-16 20:59N 29°43' W 094°56'0 0.0
2018-Feb-16 16:39N 29°43' W 094°56'0 2.3
2018-Feb-16 16:30N 29°43' W 094°57'1 2.7
2018-Feb-16 16:00N 29°42' W 094°56'1 1.5
2018-Feb-16 15:31N 29°42' W 094°55'1 1.8
2018-Feb-16 15:01N 29°41' W 094°55'2 3.2
2018-Feb-16 14:18N 29°41' W 094°58'1 3.3
2018-Feb-16 14:01N 29°41' W 094°59'2 4.8
2018-Feb-16 13:31N 29°38' W 094°58'2 3.4
2018-Feb-16 13:01N 29°37' W 094°59'1 2.6
2018-Feb-16 12:31N 29°37' W 095°00'0 0.0
2018-Feb-16 12:00N 29°37' W 095°00'0 0.0
2018-Feb-16 11:29N 29°37' W 095°00'0 0.0
2018-Feb-16 11:00N 29°37' W 095°00'0 0.0
2018-Feb-16 10:30N 29°37' W 095°00'0 0.0
2018-Feb-16 09:43N 29°37' W 095°00'0 0.0
2018-Feb-16 09:26N 29°37' W 095°00'0 0.0
2018-Feb-16 09:00N 29°37' W 095°00'0 0.0
2018-Feb-16 08:30N 29°37' W 095°00'0 0.0
2018-Feb-16 08:00N 29°37' W 095°00'0 0.0
2018-Feb-16 07:30N 29°37' W 095°00'0 0.0
2018-Feb-16 07:00N 29°37' W 095°00'0 0.0
2018-Feb-16 06:30N 29°37' W 095°00'0 0.0
2018-Feb-16 06:00N 29°37' W 095°00'0 0.0
2018-Feb-16 05:31N 29°37' W 095°00'0 0.0
2018-Feb-16 05:00N 29°37' W 095°00'0 0.0
2018-Feb-16 04:30N 29°37' W 095°00'0 0.0
2018-Feb-16 04:00N 29°37' W 095°00'0 0.0
2018-Feb-16 03:30N 29°37' W 095°00'0 0.0
2018-Feb-16 03:00N 29°37' W 095°00'0 0.0
2018-Feb-16 02:30N 29°37' W 095°00'0 0.0
2018-Feb-16 02:00N 29°37' W 095°00'0 0.0
2018-Feb-16 01:30N 29°37' W 095°00'0 0.1
2018-Feb-16 01:00N 29°37' W 095°00'1 2.8
2018-Feb-16 00:30N 29°37' W 094°59'1 3.0
2018-Feb-16 00:00N 29°38' W 094°58'2 4.4
2018-Feb-15 23:30N 29°40' W 094°59'3 0.8
2018-Feb-15 19:35N 29°42' W 094°56'1 1.1
2018-Feb-15 19:01N 29°43' W 094°56'0 0.7
2018-Feb-15 19:00N 29°43' W 094°56'1 0.2
2018-Feb-15 15:15N 29°43' W 094°57'1 0.5
2018-Feb-15 13:49N 29°43' W 094°56'0 0.0
2018-Feb-15 13:05N 29°43' W 094°56'0 0.0
2018-Feb-15 12:54N 29°43' W 094°56'1 1.6
2018-Feb-15 12:29N 29°42' W 094°56'0 1.0
2018-Feb-15 12:00N 29°42' W 094°55'0 0.0
2018-Feb-15 06:34N 29°42' W 094°55'0 0.0
2018-Feb-15 06:25N 29°42' W 094°55'0 0.0
2018-Feb-15 05:58N 29°42' W 094°55'0 0.0
2018-Feb-15 05:00N 29°42' W 094°55'0 0.0
2018-Feb-14 22:55N 29°42' W 094°55'1 2.9
2018-Feb-14 22:27N 29°43' W 094°56'1 0.1
2018-Feb-14 17:36N 29°43' W 094°57'1 5.6
2018-Feb-14 17:30N 29°43' W 094°56'1 0.1
2018-Feb-14 10:17N 29°42' W 094°55'1 2.6
2018-Feb-14 09:55N 29°43' W 094°56'1 0.6
2018-Feb-14 09:00N 29°43' W 094°57'1 2.4
2018-Feb-14 08:29N 29°42' W 094°56'1 0.1
2018-Feb-13 21:13N 29°42' W 094°55'1 4.1
2018-Feb-13 21:00N 29°41' W 094°56'2 4.1
2018-Feb-13 20:29N 29°41' W 094°58'6 0.3
2018-Feb-13 01:58N 29°45' W 095°04'3 6.0
2018-Feb-13 01:25N 29°42' W 095°01'3 6.1
2018-Feb-13 01:00N 29°41' W 094°59'3 5.1
2018-Feb-13 00:30N 29°40' W 094°56'2 3.3
2018-Feb-13 00:00N 29°42' W 094°55'2 3.2
2018-Feb-12 23:25N 29°41' W 094°57'2 4.0
2018-Feb-12 23:00N 29°41' W 094°58'2 3.8
2018-Feb-12 22:31N 29°41' W 094°56'2 1.9
2018-Feb-12 21:33N 29°42' W 094°55'1 3.2
2018-Feb-12 21:22N 29°42' W 094°56'1 0.6
2018-Feb-12 20:04N 29°43' W 094°56'0 0.0
2018-Feb-12 19:50N 29°43' W 094°56'0 0.0
2018-Feb-12 19:29N 29°43' W 094°56'0 0.0
2018-Feb-12 19:00N 29°43' W 094°56'0 0.0
2018-Feb-12 18:30N 29°43' W 094°56'0 0.0
2018-Feb-12 17:58N 29°43' W 094°56'0 0.0
2018-Feb-12 17:23N 29°43' W 094°56'0 0.0
2018-Feb-12 16:57N 29°43' W 094°56'0 0.0
2018-Feb-12 16:04N 29°43' W 094°56'0 0.0
2018-Feb-12 15:49N 29°43' W 094°56'0 0.0
2018-Feb-12 15:17N 29°43' W 094°56'0 0.0
2018-Feb-12 14:58N 29°43' W 094°56'0 0.0
2018-Feb-12 14:29N 29°43' W 094°56'0 0.0
2018-Feb-12 13:58N 29°43' W 094°56'0 0.0
2018-Feb-12 13:30N 29°43' W 094°56'0 0.1
2018-Feb-12 12:56N 29°43' W 094°56'0 0.0
2018-Feb-12 12:30N 29°43' W 094°56'0 0.0
2018-Feb-12 05:44N 29°43' W 094°56'0 0.0
2018-Feb-12 05:29N 29°43' W 094°56'0 0.0
2018-Feb-12 04:57N 29°43' W 094°56'  
Track history (hours):
 
Tides and Currents Weather Stations Pressure Air Temp Water Temp Dewpoint Dewpoint Depression Visibility Wind Speed Wind Dir Waves Ship Positions

Harlan Richardson

Owner: RICHARDSON MARINE LP, HOUSTON, TX. More information available from US FCC via Universal Licensing System and Coast Guard Vessel Documentation Center.

Last reported at 2018-Feb-22 04:31 UTC. Time now 2018-Feb-22 04:56 UTC.
Position N 29°42' W 094°55'.

Length 15 m; draft 9 m.

Type: Towing. MMSI: 367310170.

Date/timePositionNaut miles runAvg speedWind from/ knotsBaromVisibWave heightAir tempDewpointWater temp
2018-Feb-22 04:31N 29°42' W 094°55'0 0.0
2018-Feb-22 04:00N 29°42' W 094°55'0 0.0
2018-Feb-22 03:31N 29°42' W 094°55'0 0.0
2018-Feb-22 03:00N 29°42' W 094°55'0 0.0
2018-Feb-22 02:30N 29°42' W 094°55'0 0.0
2018-Feb-22 02:01N 29°42' W 094°55'0 0.0
2018-Feb-22 01:30N 29°42' W 094°55'0 0.0
2018-Feb-22 01:00N 29°42' W 094°55'0 0.2
2018-Feb-22 00:31N 29°42' W 094°55'1 1.7
2018-Feb-21 23:44N 29°43' W 094°56'0 0.5
2018-Feb-21 23:30N 29°43' W 094°56'1 2.4
2018-Feb-21 23:00N 29°42' W 094°55'0 0.2
2018-Feb-21 22:15N 29°42' W 094°55'1 2.9
2018-Feb-21 21:57N 29°42' W 094°56'1 0.1
2018-Feb-21 14:34N 29°43' W 094°57'0 5.6
2018-Feb-21 14:31N 29°43' W 094°57'2 3.6
2018-Feb-21 14:00N 29°42' W 094°55'0 0.0
2018-Feb-21 12:17N 29°42' W 094°55'0 0.0
2018-Feb-21 11:59N 29°42' W 094°55'2 3.5
2018-Feb-21 11:30N 29°43' W 094°57'0 0.1
2018-Feb-21 03:00N 29°43' W 094°56'0 0.0
2018-Feb-21 00:46N 29°43' W 094°56'0 0.5
2018-Feb-21 00:26N 29°43' W 094°57'2 3.6
2018-Feb-20 23:58N 29°42' W 094°55'0 0.6
2018-Feb-20 23:30N 29°42' W 094°55'1 1.7
2018-Feb-20 22:55N 29°42' W 094°56'0 1.0
2018-Feb-20 22:29N 29°43' W 094°56'0 0.0
2018-Feb-20 20:21N 29°43' W 094°56'0 0.0
2018-Feb-20 16:04N 29°43' W 094°56'0 0.2
2018-Feb-20 16:00N 29°43' W 094°56'1 1.4
2018-Feb-20 15:20N 29°42' W 094°55'0 0.9
2018-Feb-20 14:54N 29°42' W 094°55'1 1.5
2018-Feb-20 14:26N 29°42' W 094°56'1 1.5
2018-Feb-20 13:53N 29°43' W 094°56'1 1.7
2018-Feb-20 13:28N 29°43' W 094°57'1 1.5
2018-Feb-20 12:58N 29°43' W 094°56'0 0.0
2018-Feb-20 12:16N 29°43' W 094°56'0 0.0
2018-Feb-20 09:46N 29°43' W 094°56'0 0.0
2018-Feb-20 09:30N 29°43' W 094°56'0 0.0
2018-Feb-20 08:44N 29°43' W 094°56'0 0.0
2018-Feb-20 08:27N 29°43' W 094°56'0 0.0
2018-Feb-20 08:00N 29°43' W 094°56'0 0.0
2018-Feb-20 07:30N 29°43' W 094°56'0 0.0
2018-Feb-20 06:52N 29°43' W 094°56'0 0.0
2018-Feb-20 06:30N 29°43' W 094°56'0 0.0
2018-Feb-20 05:58N 29°43' W 094°56'0 0.0
2018-Feb-20 05:31N 29°43' W 094°56'0 0.0
2018-Feb-20 04:55N 29°43' W 094°56'0 0.0
2018-Feb-20 04:28N 29°43' W 094°56'0 0.0
2018-Feb-20 04:01N 29°43' W 094°56'0 0.0
2018-Feb-20 03:28N 29°43' W 094°56'0 0.0
2018-Feb-20 02:59N 29°43' W 094°56'0 0.1
2018-Feb-20 02:30N 29°43' W 094°56'0 0.1
2018-Feb-20 01:30N 29°43' W 094°56'0 0.0
2018-Feb-20 01:01N 29°43' W 094°56'0 0.0
2018-Feb-20 00:22N 29°43' W 094°56'0 0.1
2018-Feb-19 23:59N 29°43' W 094°56'0 0.1
2018-Feb-19 23:29N 29°43' W 094°56'1 1.4
2018-Feb-19 23:00N 29°43' W 094°57'1 1.4
2018-Feb-19 22:30N 29°43' W 094°56'1 2.3
2018-Feb-19 22:00N 29°42' W 094°55'0 0.1
2018-Feb-19 19:38N 29°42' W 094°55'2 2.2
2018-Feb-19 18:51N 29°41' W 094°57'1 4.3
2018-Feb-19 18:30N 29°41' W 094°58'2 3.5
2018-Feb-19 18:00N 29°40' W 094°58'2 4.7
2018-Feb-19 17:31N 29°37' W 094°57'2 4.5
2018-Feb-19 17:00N 29°37' W 095°00'0 0.2
2018-Feb-19 16:30N 29°37' W 095°00'0 0.0
2018-Feb-19 16:01N 29°37' W 095°00'0 0.0
2018-Feb-19 15:30N 29°37' W 095°00'0 0.0
2018-Feb-19 15:01N 29°37' W 095°00'0 0.0
2018-Feb-19 14:31N 29°37' W 095°00'0 0.0
2018-Feb-19 14:01N 29°37' W 095°00'0 0.0
2018-Feb-19 13:31N 29°37' W 095°00'0 0.0
2018-Feb-19 13:00N 29°37' W 095°00'1 1.2
2018-Feb-19 12:31N 29°37' W 094°59'2 4.1
2018-Feb-19 12:00N 29°39' W 094°58'3 5.6
2018-Feb-19 11:31N 29°41' W 094°58'2 4.6
2018-Feb-19 11:00N 29°41' W 094°56'1 0.7
2018-Feb-19 09:39N 29°42' W 094°55'0 0.0
2018-Feb-19 09:30N 29°42' W 094°55'0 0.0
2018-Feb-19 09:00N 29°42' W 094°55'0 0.0
2018-Feb-19 08:30N 29°42' W 094°55'0 0.0
2018-Feb-19 08:00N 29°42' W 094°55'0 0.0
2018-Feb-19 07:30N 29°42' W 094°55'0 0.0
2018-Feb-19 06:59N 29°42' W 094°55'0 0.0
2018-Feb-19 06:21N 29°42' W 094°55'0 0.0
2018-Feb-19 05:58N 29°42' W 094°55'0 0.0
2018-Feb-19 05:29N 29°42' W 094°55'0 0.0
2018-Feb-19 04:58N 29°42' W 094°55'0 0.1
2018-Feb-19 02:42N 29°42' W 094°55'1 3.3
2018-Feb-19 02:30N 29°42' W 094°56'1 1.5
2018-Feb-19 01:34N 29°43' W 094°56'0 1.8
2018-Feb-19 01:28N 29°43' W 094°57'1 2.5
2018-Feb-19 00:58N 29°42' W 094°56'1 1.0
2018-Feb-19 00:15N 29°42' W 094°55'0 0.1
2018-Feb-19 00:00N 29°42' W 094°55'0 0.5
2018-Feb-18 23:30N 29°42' W 094°55'2 3.1
2018-Feb-18 23:00N 29°41' W 094°57'2 4.5
2018-Feb-18 22:30N 29°41' W 094°59'4 6.1
2018-Feb-18 21:48N 29°44' W 095°03'3 5.3
2018-Feb-18 21:18N 29°45' W 095°06'3 6.4
2018-Feb-18 20:52N 29°44' W 095°09'3 1.4
2018-Feb-18 19:00N 29°45' W 095°11'0 0.0
2018-Feb-18 18:20N 29°45' W 095°11'0 0.0
2018-Feb-18 17:26N 29°45' W 095°11'0 0.0
2018-Feb-18 16:51N 29°45' W 095°11'0 0.0
2018-Feb-18 16:27N 29°45' W 095°11'0 0.0
2018-Feb-18 15:50N 29°45' W 095°11'0 0.0
2018-Feb-18 15:26N 29°45' W 095°11'0 0.0
2018-Feb-18 14:48N 29°45' W 095°11'0 0.0
2018-Feb-18 14:30N 29°45' W 095°11'0 0.0
2018-Feb-18 11:04N 29°45' W 095°11'0 0.0
2018-Feb-18 10:54N 29°45' W 095°11'0 0.0
2018-Feb-18 08:22N 29°45' W 095°11'0 0.0
2018-Feb-18 07:14N 29°45' W 095°11'0 0.0
2018-Feb-18 07:00N 29°45' W 095°11'0 0.0
2018-Feb-18 06:13N 29°45' W 095°11'0 0.0
2018-Feb-18 01:35N 29°45' W 095°11'1 6.6
2018-Feb-18 01:30N 29°45' W 095°11'3 6.1
2018-Feb-18 01:00N 29°44' W 095°07'3 5.9
2018-Feb-18 00:31N 29°45' W 095°04'3 5.8
2018-Feb-18 00:00N 29°43' W 095°01'3 6.4
2018-Feb-17 23:30N 29°41' W 094°59'3 5.5
2018-Feb-17 23:00N 29°40' W 094°56'2 3.0
2018-Feb-17 22:28N 29°42' W 094°55'1 2.8
2018-Feb-17 22:00N 29°43' W 094°56'0 0.1
2018-Feb-17 21:30N 29°43' W 094°56'0 0.0
2018-Feb-17 21:00N 29°43' W 094°56'0 0.0
2018-Feb-17 20:30N 29°43' W 094°56'0 0.0
2018-Feb-17 19:57N 29°43' W 094°56'0 0.0
2018-Feb-17 19:30N 29°43' W 094°56'0 0.0
2018-Feb-17 18:59N 29°43' W 094°56'0 0.0
2018-Feb-17 18:31N 29°43' W 094°56'0 0.0
2018-Feb-17 17:52N 29°43' W 094°56'0 0.0
2018-Feb-17 17:04N 29°43' W 094°56'0 0.0
2018-Feb-17 16:57N 29°43' W 094°56'0 0.0
2018-Feb-17 16:20N 29°43' W 094°56'0 0.0
2018-Feb-17 16:00N 29°43' W 094°56'0 0.1
2018-Feb-17 15:29N 29°43' W 094°56'1 0.1
2018-Feb-17 05:18N 29°43' W 094°56'0 1.6
2018-Feb-17 05:00N 29°43' W 094°56'2 3.0
2018-Feb-17 04:30N 29°42' W 094°55'1 1.2
2018-Feb-17 04:00N 29°42' W 094°56'1 2.9
2018-Feb-17 03:31N 29°43' W 094°57'0 0.2
2018-Feb-17 02:50N 29°43' W 094°56'0 0.3
2018-Feb-17 02:30N 29°43' W 094°57'1 1.5
2018-Feb-17 02:01N 29°43' W 094°56'0 0.1
2018-Feb-17 01:29N 29°43' W 094°56'0 1.0
2018-Feb-17 01:00N 29°42' W 094°56'0 0.9
2018-Feb-17 00:30N 29°42' W 094°56'1 1.2
2018-Feb-16 23:59N 29°42' W 094°55'0 0.1
2018-Feb-16 23:22N 29°42' W 094°55'0 0.3
2018-Feb-16 22:57N 29°42' W 094°55'1 1.6
2018-Feb-16 22:30N 29°42' W 094°56'1 1.5
2018-Feb-16 22:00N 29°43' W 094°56'0 0.1
2018-Feb-16 21:31N 29°43' W 094°56'1 1.3
2018-Feb-16 20:59N 29°43' W 094°56'0 0.0
2018-Feb-16 16:39N 29°43' W 094°56'0 2.3
2018-Feb-16 16:30N 29°43' W 094°57'1 2.7
2018-Feb-16 16:00N 29°42' W 094°56'1 1.5
2018-Feb-16 15:31N 29°42' W 094°55'1 1.8
2018-Feb-16 15:01N 29°41' W 094°55'2 3.2
2018-Feb-16 14:18N 29°41' W 094°58'1 3.3
2018-Feb-16 14:01N 29°41' W 094°59'2 4.8
2018-Feb-16 13:31N 29°38' W 094°58'2 3.4
2018-Feb-16 13:01N 29°37' W 094°59'1 2.6
2018-Feb-16 12:31N 29°37' W 095°00'0 0.0
2018-Feb-16 12:00N 29°37' W 095°00'0 0.0
2018-Feb-16 11:29N 29°37' W 095°00'0 0.0
2018-Feb-16 11:00N 29°37' W 095°00'0 0.0
2018-Feb-16 10:30N 29°37' W 095°00'0 0.0
2018-Feb-16 09:43N 29°37' W 095°00'0 0.0
2018-Feb-16 09:26N 29°37' W 095°00'0 0.0
2018-Feb-16 09:00N 29°37' W 095°00'0 0.0
2018-Feb-16 08:30N 29°37' W 095°00'0 0.0
2018-Feb-16 08:00N 29°37' W 095°00'0 0.0
2018-Feb-16 07:30N 29°37' W 095°00'0 0.0
2018-Feb-16 07:00N 29°37' W 095°00'0 0.0
2018-Feb-16 06:30N 29°37' W 095°00'0 0.0
2018-Feb-16 06:00N 29°37' W 095°00'0 0.0
2018-Feb-16 05:31N 29°37' W 095°00'0 0.0
2018-Feb-16 05:00N 29°37' W 095°00'0 0.0
2018-Feb-16 04:30N 29°37' W 095°00'0 0.0
2018-Feb-16 04:00N 29°37' W 095°00'0 0.0
2018-Feb-16 03:30N 29°37' W 095°00'0 0.0
2018-Feb-16 03:00N 29°37' W 095°00'0 0.0
2018-Feb-16 02:30N 29°37' W 095°00'0 0.0
2018-Feb-16 02:00N 29°37' W 095°00'0 0.0
2018-Feb-16 01:30N 29°37' W 095°00'0 0.1
2018-Feb-16 01:00N 29°37' W 095°00'1 2.8
2018-Feb-16 00:30N 29°37' W 094°59'1 3.0
2018-Feb-16 00:00N 29°38' W 094°58'2 4.4
2018-Feb-15 23:30N 29°40' W 094°59'3 0.8
2018-Feb-15 19:35N 29°42' W 094°56'1 1.1
2018-Feb-15 19:01N 29°43' W 094°56'0 0.7
2018-Feb-15 19:00N 29°43' W 094°56'1 0.2
2018-Feb-15 15:15N 29°43' W 094°57'1 0.5
2018-Feb-15 13:49N 29°43' W 094°56'0 0.0
2018-Feb-15 13:05N 29°43' W 094°56'0 0.0
2018-Feb-15 12:54N 29°43' W 094°56'1 1.6
2018-Feb-15 12:29N 29°42' W 094°56'0 1.0
2018-Feb-15 12:00N 29°42' W 094°55'0 0.0
2018-Feb-15 06:34N 29°42' W 094°55'0 0.0
2018-Feb-15 06:25N 29°42' W 094°55'0 0.0
2018-Feb-15 05:58N 29°42' W 094°55'0 0.0
2018-Feb-15 05:00N 29°42' W 094°55'0 0.0
2018-Feb-14 22:55N 29°42' W 094°55'1 2.9
2018-Feb-14 22:27N 29°43' W 094°56'1 0.1
2018-Feb-14 17:36N 29°43' W 094°57'1 5.6
2018-Feb-14 17:30N 29°43' W 094°56'1 0.1
2018-Feb-14 10:17N 29°42' W 094°55'1 2.6
2018-Feb-14 09:55N 29°43' W 094°56'1 0.6
2018-Feb-14 09:00N 29°43' W 094°57'1 2.4
2018-Feb-14 08:29N 29°42' W 094°56'1 0.1
2018-Feb-13 21:13N 29°42' W 094°55'1 4.1
2018-Feb-13 21:00N 29°41' W 094°56'2 4.1
2018-Feb-13 20:29N 29°41' W 094°58'6 0.3
2018-Feb-13 01:58N 29°45' W 095°04'3 6.0
2018-Feb-13 01:25N 29°42' W 095°01'3 6.1
2018-Feb-13 01:00N 29°41' W 094°59'3 5.1
2018-Feb-13 00:30N 29°40' W 094°56'2 3.3
2018-Feb-13 00:00N 29°42' W 094°55'2 3.2
2018-Feb-12 23:25N 29°41' W 094°57'2 4.0
2018-Feb-12 23:00N 29°41' W 094°58'2 3.8
2018-Feb-12 22:31N 29°41' W 094°56'2 1.9
2018-Feb-12 21:33N 29°42' W 094°55'1 3.2
2018-Feb-12 21:22N 29°42' W 094°56'1 0.6
2018-Feb-12 20:04N 29°43' W 094°56'0 0.0
2018-Feb-12 19:50N 29°43' W 094°56'0 0.0
2018-Feb-12 19:29N 29°43' W 094°56'0 0.0
2018-Feb-12 19:00N 29°43' W 094°56'0 0.0
2018-Feb-12 18:30N 29°43' W 094°56'0 0.0
2018-Feb-12 17:58N 29°43' W 094°56'0 0.0
2018-Feb-12 17:23N 29°43' W 094°56'0 0.0
2018-Feb-12 16:57N 29°43' W 094°56'0 0.0
2018-Feb-12 16:04N 29°43' W 094°56'0 0.0
2018-Feb-12 15:49N 29°43' W 094°56'0 0.0
2018-Feb-12 15:17N 29°43' W 094°56'0 0.0
2018-Feb-12 14:58N 29°43' W 094°56'0 0.0
2018-Feb-12 14:29N 29°43' W 094°56'0 0.0
2018-Feb-12 13:58N 29°43' W 094°56'0 0.0
2018-Feb-12 13:30N 29°43' W 094°56'0 0.1
2018-Feb-12 12:56N 29°43' W 094°56'0 0.0
2018-Feb-12 12:30N 29°43' W 094°56'0 0.0
2018-Feb-12 05:44N 29°43' W 094°56'0 0.0
2018-Feb-12 05:29N 29°43' W 094°56'0 0.0
2018-Feb-12 04:57N 29°43' W 094°56'  

Dump ship's entire track history